Plantsville, Connecticut
Current Conditions -  °F | °C
As of 11:53 PM on Friday 19 Dec 2014 (Local Time) from KMMK Reporting Station
Overcast Overcast  
Wind Chill: 24°   Ceiling: 3000
Heat Index: 29°   Visibility: 10mi
Dew Point: 20°   Wind: 5mph
Humidity: 69%   Direction: 320°NW
Pressure: 30.17"   Gusts: NA
Location:  41.58°N, 72.89°W
Report Text: KMMK 200453Z AUTO 32004KT 10SM OVC030 M02/M07 A3017 RMK AO2 SLP219 T10171067 400281017 TSNO
Loading
Personal Weather Stations






























Interactive Weather Map New forecast layout! Learn more

10-Day Weather Forecast

Advertisements
Track Severe Weather on mobile